sensor_id;sensor_type;location;lat;lon;timestamp;pressure;altitude;pressure_sealevel;temperature;humidity
36234;BME280;43467;50.890;5.982;2023-02-20T00:02:04;101288.50;;;7.50;86.05
36234;BME280;43467;50.890;5.982;2023-02-20T00:04:30;101289.28;;;7.56;85.77
36234;BME280;43467;50.890;5.982;2023-02-20T00:06:55;101281.34;;;7.58;85.63
36234;BME280;43467;50.890;5.982;2023-02-20T00:09:21;101280.50;;;7.56;85.49
36234;BME280;43467;50.890;5.982;2023-02-20T00:11:46;101280.44;;;7.59;85.30
36234;BME280;43467;50.890;5.982;2023-02-20T00:14:12;101264.53;;;7.63;85.14
36234;BME280;43467;50.890;5.982;2023-02-20T00:16:37;101269.88;;;7.60;84.96
36234;BME280;43467;50.890;5.982;2023-02-20T00:19:03;101264.69;;;7.54;85.20
36234;BME280;43467;50.890;5.982;2023-02-20T00:21:28;101273.53;;;7.50;85.01
36234;BME280;43467;50.890;5.982;2023-02-20T00:23:54;101259.53;;;7.48;85.09
36234;BME280;43467;50.890;5.982;2023-02-20T00:26:19;101257.78;;;7.48;85.12
36234;BME280;43467;50.890;5.982;2023-02-20T00:28:45;101252.31;;;7.59;84.91
36234;BME280;43467;50.890;5.982;2023-02-20T00:31:14;101252.38;;;7.58;84.67
36234;BME280;43467;50.890;5.982;2023-02-20T00:33:40;101247.19;;;7.52;84.91
36234;BME280;43467;50.890;5.982;2023-02-20T00:36:06;101248.03;;;7.54;85.02
36234;BME280;43467;50.890;5.982;2023-02-20T00:38:32;101232.25;;;7.52;84.84
36234;BME280;43467;50.890;5.982;2023-02-20T00:40:57;101245.41;;;7.52;84.82
36234;BME280;43467;50.890;5.982;2023-02-20T00:43:22;101235.75;;;7.51;84.94
36234;BME280;43467;50.890;5.982;2023-02-20T00:45:48;101241.84;;;7.56;84.56
36234;BME280;43467;50.890;5.982;2023-02-20T00:48:13;101247.19;;;7.50;85.18
36234;BME280;43467;50.890;5.982;2023-02-20T00:50:38;101242.72;;;7.57;84.97
36234;BME280;43467;50.890;5.982;2023-02-20T00:53:04;101240.16;;;7.52;85.03
36234;BME280;43467;50.890;5.982;2023-02-20T00:55:29;101228.84;;;7.45;85.59
36234;BME280;43467;50.890;5.982;2023-02-20T00:57:55;101208.59;;;7.47;85.55
36234;BME280;43467;50.890;5.982;2023-02-20T01:00:26;101206.72;;;7.54;85.26
36234;BME280;43467;50.890;5.982;2023-02-20T01:02:52;101225.06;;;7.62;85.29
36234;BME280;43467;50.890;5.982;2023-02-20T01:05:18;101203.25;;;7.52;85.74
36234;BME280;43467;50.890;5.982;2023-02-20T01:07:44;101200.63;;;7.51;85.86
36234;BME280;43467;50.890;5.982;2023-02-20T01:10:10;101204.00;;;7.59;85.76
36234;BME280;43467;50.890;5.982;2023-02-20T01:12:36;101203.13;;;7.60;85.69
36234;BME280;43467;50.890;5.982;2023-02-20T01:15:02;101210.16;;;7.59;85.77
36234;BME280;43467;50.890;5.982;2023-02-20T01:17:28;101205.00;;;7.53;86.05
36234;BME280;43467;50.890;5.982;2023-02-20T01:19:53;101193.66;;;7.50;86.36
36234;BME280;43467;50.890;5.982;2023-02-20T01:22:20;101196.38;;;7.45;86.84
36234;BME280;43467;50.890;5.982;2023-02-20T01:24:45;101206.03;;;7.43;86.77
36234;BME280;43467;50.890;5.982;2023-02-20T01:27:11;101193.75;;;7.42;87.01
36234;BME280;43467;50.890;5.982;2023-02-20T01:29:36;101197.28;;;7.42;86.98
36234;BME280;43467;50.890;5.982;2023-02-20T01:32:02;101196.47;;;7.39;87.16
36234;BME280;43467;50.890;5.982;2023-02-20T01:34:27;101197.19;;;7.47;86.77
36234;BME280;43467;50.890;5.982;2023-02-20T01:36:54;101190.25;;;7.43;86.58
36234;BME280;43467;50.890;5.982;2023-02-20T01:39:24;101199.88;;;7.45;86.47
36234;BME280;43467;50.890;5.982;2023-02-20T01:41:52;101209.56;;;7.43;86.75
36234;BME280;43467;50.890;5.982;2023-02-20T01:44:38;101188.53;;;7.40;87.07
36234;BME280;43467;50.890;5.982;2023-02-20T01:47:09;101190.28;;;7.41;87.19
36234;BME280;43467;50.890;5.982;2023-02-20T01:49:40;101189.34;;;7.44;87.06
36234;BME280;43467;50.890;5.982;2023-02-20T01:52:15;101182.31;;;7.44;86.91
36234;BME280;43467;50.890;5.982;2023-02-20T01:54:45;101177.84;;;7.50;86.73
36234;BME280;43467;50.890;5.982;2023-02-20T01:57:18;101176.25;;;7.41;87.02
36234;BME280;43467;50.890;5.982;2023-02-20T01:59:45;101182.41;;;7.40;87.13
36234;BME280;43467;50.890;5.982;2023-02-20T02:02:11;101181.53;;;7.39;87.48
36234;BME280;43467;50.890;5.982;2023-02-20T02:04:38;101180.63;;;7.40;87.36
36234;BME280;43467;50.890;5.982;2023-02-20T02:07:04;101172.75;;;7.39;87.04
36234;BME280;43467;50.890;5.982;2023-02-20T02:09:55;101177.13;;;7.40;86.79
36234;BME280;43467;50.890;5.982;2023-02-20T02:12:23;101172.72;;;7.40;86.95
36234;BME280;43467;50.890;5.982;2023-02-20T02:14:49;101179.56;;;7.51;86.23
36234;BME280;43467;50.890;5.982;2023-02-20T02:32:00;101161.53;;;7.28;86.43
36234;BME280;43467;50.890;5.982;2023-02-20T02:37:18;101154.47;;;7.30;86.15
36234;BME280;43467;50.890;5.982;2023-02-20T02:42:48;101149.16;;;7.33;86.10
36234;BME280;43467;50.890;5.982;2023-02-20T02:47:50;101143.09;;;7.28;86.35
36234;BME280;43467;50.890;5.982;2023-02-20T02:50:30;101132.66;;;7.22;86.39
36234;BME280;43467;50.890;5.982;2023-02-20T02:52:57;101123.94;;;7.20;86.58
36234;BME280;43467;50.890;5.982;2023-02-20T02:55:25;101116.97;;;7.17;86.67
36234;BME280;43467;50.890;5.982;2023-02-20T02:57:51;101110.75;;;7.20;86.68
36234;BME280;43467;50.890;5.982;2023-02-20T03:00:21;101104.69;;;7.16;86.43
36234;BME280;43467;50.890;5.982;2023-02-20T03:06:03;101076.53;;;7.20;86.43
36234;BME280;43467;50.890;5.982;2023-02-20T03:11:23;101070.75;;;6.99;86.96
36234;BME280;43467;50.890;5.982;2023-02-20T03:13:57;101070.66;;;7.04;87.04
36234;BME280;43467;50.890;5.982;2023-02-20T03:17:09;101083.78;;;7.07;87.29
36234;BME280;43467;50.890;5.982;2023-02-20T03:19:50;101078.53;;;7.06;86.94
36234;BME280;43467;50.890;5.982;2023-02-20T03:25:07;101073.31;;;7.03;86.98
36234;BME280;43467;50.890;5.982;2023-02-20T03:27:45;101087.28;;;7.08;87.21
36234;BME280;43467;50.890;5.982;2023-02-20T03:32:47;101048.91;;;6.93;87.33
36234;BME280;43467;50.890;5.982;2023-02-20T03:35:34;101060.06;;;7.07;87.36
36234;BME280;43467;50.890;5.982;2023-02-20T03:38:22;101049.91;;;6.87;87.72
36234;BME280;43467;50.890;5.982;2023-02-20T03:41:09;101041.16;;;6.85;88.01
36234;BME280;43467;50.890;5.982;2023-02-20T03:43:56;101062.13;;;6.91;88.12
36234;BME280;43467;50.890;5.982;2023-02-20T03:46:23;101049.00;;;6.88;87.48
36234;BME280;43467;50.890;5.982;2023-02-20T03:48:54;101050.84;;;6.83;87.70
36234;BME280;43467;50.890;5.982;2023-02-20T03:51:22;101055.16;;;6.87;87.85
36234;BME280;43467;50.890;5.982;2023-02-20T03:53:47;101052.69;;;6.78;88.29
36234;BME280;43467;50.890;5.982;2023-02-20T03:56:17;101056.94;;;6.85;88.19
36234;BME280;43467;50.890;5.982;2023-02-20T03:58:52;101053.53;;;6.80;88.09
36234;BME280;43467;50.890;5.982;2023-02-20T04:01:20;101049.97;;;6.83;88.11
36234;BME280;43467;50.890;5.982;2023-02-20T04:03:48;101050.13;;;6.75;88.69
36234;BME280;43467;50.890;5.982;2023-02-20T04:06:16;101051.72;;;6.84;88.26
36234;BME280;43467;50.890;5.982;2023-02-20T04:08:47;101051.69;;;6.85;88.23
36234;BME280;43467;50.890;5.982;2023-02-20T04:11:30;101050.06;;;6.77;88.28
36234;BME280;43467;50.890;5.982;2023-02-20T04:13:57;101049.97;;;6.83;88.25
36234;BME280;43467;50.890;5.982;2023-02-20T04:16:24;101041.38;;;6.73;88.97
36234;BME280;43467;50.890;5.982;2023-02-20T04:18:50;101050.13;;;6.75;88.85
36234;BME280;43467;50.890;5.982;2023-02-20T04:23:51;101044.19;;;6.64;89.20
36234;BME280;43467;50.890;5.982;2023-02-20T04:26:21;101048.50;;;6.68;89.20
36234;BME280;43467;50.890;5.982;2023-02-20T04:28:48;101052.75;;;6.74;89.34
36234;BME280;43467;50.890;5.982;2023-02-20T04:31:14;101060.81;;;6.65;89.49
36234;BME280;43467;50.890;5.982;2023-02-20T04:33:41;101047.00;;;6.52;90.28
36234;BME280;43467;50.890;5.982;2023-02-20T04:36:07;101056.47;;;6.62;90.17
36234;BME280;43467;50.890;5.982;2023-02-20T04:38:32;101046.94;;;6.55;90.30
36234;BME280;43467;50.890;5.982;2023-02-20T04:40:58;101040.09;;;6.45;90.62
36234;BME280;43467;50.890;5.982;2023-02-20T04:43:23;101046.09;;;6.53;90.47
36234;BME280;43467;50.890;5.982;2023-02-20T04:45:48;101048.69;;;6.56;90.26
36234;BME280;43467;50.890;5.982;2023-02-20T04:48:14;101057.50;;;6.53;90.25
36234;BME280;43467;50.890;5.982;2023-02-20T04:50:39;101043.56;;;6.47;91.32
36234;BME280;43467;50.890;5.982;2023-02-20T04:53:05;101039.25;;;6.43;91.23
36234;BME280;43467;50.890;5.982;2023-02-20T04:55:31;101039.28;;;6.40;91.28
36234;BME280;43467;50.890;5.982;2023-02-20T04:57:57;101037.50;;;6.43;91.20
36234;BME280;43467;50.890;5.982;2023-02-20T05:00:23;101048.97;;;6.39;91.32
36234;BME280;43467;50.890;5.982;2023-02-20T05:02:49;101032.31;;;6.39;91.40
36234;BME280;43467;50.890;5.982;2023-02-20T05:05:18;101045.47;;;6.39;91.59
36234;BME280;43467;50.890;5.982;2023-02-20T05:07:44;101041.06;;;6.39;91.43
36234;BME280;43467;50.890;5.982;2023-02-20T05:10:18;101042.84;;;6.36;91.67
36234;BME280;43467;50.890;5.982;2023-02-20T05:12:44;101053.38;;;6.37;91.39
36234;BME280;43467;50.890;5.982;2023-02-20T05:15:09;101052.53;;;6.35;91.65
36234;BME280;43467;50.890;5.982;2023-02-20T05:17:35;101057.69;;;6.40;91.56
36234;BME280;43467;50.890;5.982;2023-02-20T05:20:01;101049.91;;;6.34;91.40
36234;BME280;43467;50.890;5.982;2023-02-20T05:22:27;101059.63;;;6.30;91.73
36234;BME280;43467;50.890;5.982;2023-02-20T05:24:52;101053.41;;;6.34;91.46
36234;BME280;43467;50.890;5.982;2023-02-20T05:27:20;101057.75;;;6.37;91.62
36234;BME280;43467;50.890;5.982;2023-02-20T05:29:52;101050.72;;;6.37;91.84
36234;BME280;43467;50.890;5.982;2023-02-20T05:32:18;101064.88;;;6.30;92.56
36234;BME280;43467;50.890;5.982;2023-02-20T05:34:45;101052.78;;;6.19;92.65
36234;BME280;43467;50.890;5.982;2023-02-20T05:37:11;101044.84;;;6.23;92.76
36234;BME280;43467;50.890;5.982;2023-02-20T05:39:37;101044.16;;;6.07;93.02
36234;BME280;43467;50.890;5.982;2023-02-20T05:42:04;101056.31;;;6.16;93.11
36234;BME280;43467;50.890;5.982;2023-02-20T05:44:30;101051.03;;;6.18;92.76
36234;BME280;43467;50.890;5.982;2023-02-20T05:46:55;101055.41;;;6.19;93.16
36234;BME280;43467;50.890;5.982;2023-02-20T05:49:22;101051.97;;;6.12;92.90
36234;BME280;43467;50.890;5.982;2023-02-20T05:51:48;101059.69;;;6.24;93.16
36234;BME280;43467;50.890;5.982;2023-02-20T05:54:18;101062.44;;;6.18;93.09
36234;BME280;43467;50.890;5.982;2023-02-20T05:56:44;101056.34;;;6.15;93.40
36234;BME280;43467;50.890;5.982;2023-02-20T05:59:11;101055.38;;;6.20;93.19
36234;BME280;43467;50.890;5.982;2023-02-20T06:01:38;101053.78;;;6.10;93.68
36234;BME280;43467;50.890;5.982;2023-02-20T06:04:04;101048.53;;;6.08;94.12
36234;BME280;43467;50.890;5.982;2023-02-20T06:08:58;101051.84;;;6.21;93.17
36234;BME280;43467;50.890;5.982;2023-02-20T06:11:24;101033.50;;;6.17;93.34
36234;BME280;43467;50.890;5.982;2023-02-20T06:13:49;101033.94;;;5.88;94.12
36234;BME280;43467;50.890;5.982;2023-02-20T06:16:24;101035.69;;;5.89;93.72
36234;BME280;43467;50.890;5.982;2023-02-20T06:18:50;101030.50;;;5.80;94.45
36234;BME280;43467;50.890;5.982;2023-02-20T06:21:16;101038.25;;;5.95;94.28
36234;BME280;43467;50.890;5.982;2023-02-20T06:23:42;101042.41;;;6.10;93.46
36234;BME280;43467;50.890;5.982;2023-02-20T06:26:12;101045.91;;;6.08;93.17
36234;BME280;43467;50.890;5.982;2023-02-20T06:28:38;101039.72;;;6.13;93.10
36234;BME280;43467;50.890;5.982;2023-02-20T06:31:07;101043.34;;;6.04;92.64
36234;BME280;43467;50.890;5.982;2023-02-20T06:33:33;101044.22;;;6.04;92.34
36234;BME280;43467;50.890;5.982;2023-02-20T06:35:59;101043.41;;;6.01;92.40
36234;BME280;43467;50.890;5.982;2023-02-20T06:38:24;101050.34;;;6.06;92.49
36234;BME280;43467;50.890;5.982;2023-02-20T06:40:50;101055.53;;;6.08;92.60
36234;BME280;43467;50.890;5.982;2023-02-20T06:43:16;101044.03;;;6.17;92.24
36234;BME280;43467;50.890;5.982;2023-02-20T06:45:42;101062.44;;;6.17;92.66
36234;BME280;43467;50.890;5.982;2023-02-20T06:48:08;101061.63;;;6.12;92.60
36234;BME280;43467;50.890;5.982;2023-02-20T06:50:33;101064.31;;;6.10;92.93
36234;BME280;43467;50.890;5.982;2023-02-20T06:52:59;101073.06;;;6.07;92.92
36234;BME280;43467;50.890;5.982;2023-02-20T06:55:24;101073.00;;;6.15;92.85
36234;BME280;43467;50.890;5.982;2023-02-20T06:57:49;101066.94;;;6.10;92.15
36234;BME280;43467;50.890;5.982;2023-02-20T07:00:16;101073.94;;;6.11;92.13
36234;BME280;43467;50.890;5.982;2023-02-20T07:02:42;101078.34;;;6.07;91.65
36234;BME280;43467;50.890;5.982;2023-02-20T07:05:09;101078.16;;;6.20;91.44
36234;BME280;43467;50.890;5.982;2023-02-20T07:07:35;101073.16;;;6.03;91.81
36234;BME280;43467;50.890;5.982;2023-02-20T07:10:00;101073.13;;;6.06;91.37
36234;BME280;43467;50.890;5.982;2023-02-20T07:12:30;101081.06;;;6.00;91.74
36234;BME280;43467;50.890;5.982;2023-02-20T07:14:56;101082.13;;;5.88;92.17
36234;BME280;43467;50.890;5.982;2023-02-20T07:17:21;101095.25;;;5.88;92.74
36234;BME280;43467;50.890;5.982;2023-02-20T07:19:47;101098.78;;;5.84;92.84
36234;BME280;43467;50.890;5.982;2023-02-20T07:22:12;101088.25;;;5.84;92.64
36234;BME280;43467;50.890;5.982;2023-02-20T07:24:37;101095.19;;;5.94;92.57
36234;BME280;43467;50.890;5.982;2023-02-20T07:27:05;101102.09;;;6.01;92.54
36234;BME280;43467;50.890;5.982;2023-02-20T07:29:31;101097.78;;;5.96;92.33
36234;BME280;43467;50.890;5.982;2023-02-20T07:31:56;101084.75;;;5.88;92.43
36234;BME280;43467;50.890;5.982;2023-02-20T07:34:21;101093.34;;;5.99;92.57
36234;BME280;43467;50.890;5.982;2023-02-20T07:36:47;101090.69;;;6.02;92.31
36234;BME280;43467;50.890;5.982;2023-02-20T07:39:12;101087.25;;;5.97;92.35
36234;BME280;43467;50.890;5.982;2023-02-20T07:41:38;101092.34;;;6.08;92.36
36234;BME280;43467;50.890;5.982;2023-02-20T07:44:04;101102.88;;;6.10;92.16
36234;BME280;43467;50.890;5.982;2023-02-20T07:46:29;101104.56;;;6.15;92.20
36234;BME280;43467;50.890;5.982;2023-02-20T07:48:59;101109.75;;;6.18;91.77
36234;BME280;43467;50.890;5.982;2023-02-20T07:51:25;101101.06;;;6.13;91.92
36234;BME280;43467;50.890;5.982;2023-02-20T07:53:51;101109.81;;;6.14;91.75
36234;BME280;43467;50.890;5.982;2023-02-20T07:56:19;101098.41;;;6.15;91.66
36234;BME280;43467;50.890;5.982;2023-02-20T07:58:45;101097.41;;;6.23;91.45
36234;BME280;43467;50.890;5.982;2023-02-20T08:01:11;101088.78;;;6.14;91.92
36234;BME280;43467;50.890;5.982;2023-02-20T08:03:36;101094.88;;;6.17;92.01
36234;BME280;43467;50.890;5.982;2023-02-20T08:06:01;101093.13;;;6.16;92.07
36234;BME280;43467;50.890;5.982;2023-02-20T08:08:27;101096.63;;;6.17;91.81
36234;BME280;43467;50.890;5.982;2023-02-20T08:10:52;101103.63;;;6.19;91.86
36234;BME280;43467;50.890;5.982;2023-02-20T08:13:17;101108.81;;;6.22;91.41
36234;BME280;43467;50.890;5.982;2023-02-20T08:15:43;101103.50;;;6.27;91.36
36234;BME280;43467;50.890;5.982;2023-02-20T08:18:09;101106.94;;;6.30;91.06
36234;BME280;43467;50.890;5.982;2023-02-20T08:20:35;101088.63;;;6.24;90.86
36234;BME280;43467;50.890;5.982;2023-02-20T08:23:00;101111.22;;;6.37;91.00
36234;BME280;43467;50.890;5.982;2023-02-20T08:25:25;101105.91;;;6.42;90.88
36234;BME280;43467;50.890;5.982;2023-02-20T08:27:51;101107.81;;;6.31;91.35
36234;BME280;43467;50.890;5.982;2023-02-20T08:30:21;101097.25;;;6.35;91.28
36234;BME280;43467;50.890;5.982;2023-02-20T08:32:49;101095.69;;;6.21;91.63
36234;BME280;43467;50.890;5.982;2023-02-20T08:35:15;101114.84;;;6.30;91.45
36234;BME280;43467;50.890;5.982;2023-02-20T08:37:40;101103.41;;;6.33;91.47
36234;BME280;43467;50.890;5.982;2023-02-20T08:40:06;101107.75;;;6.35;91.37
36234;BME280;43467;50.890;5.982;2023-02-20T08:42:33;101108.66;;;6.34;91.20
36234;BME280;43467;50.890;5.982;2023-02-20T08:44:59;101108.59;;;6.39;90.89
36234;BME280;43467;50.890;5.982;2023-02-20T08:47:24;101108.53;;;6.42;90.89
36234;BME280;43467;50.890;5.982;2023-02-20T08:49:50;101111.09;;;6.46;90.89
36234;BME280;43467;50.890;5.982;2023-02-20T08:52:15;101114.56;;;6.50;90.50
36234;BME280;43467;50.890;5.982;2023-02-20T08:54:44;101118.06;;;6.49;90.36
36234;BME280;43467;50.890;5.982;2023-02-20T08:57:10;101118.06;;;6.49;90.35
36234;BME280;43467;50.890;5.982;2023-02-20T08:59:36;101114.56;;;6.50;90.37
36234;BME280;43467;50.890;5.982;2023-02-20T09:02:03;101094.50;;;6.43;90.12
36234;BME280;43467;50.890;5.982;2023-02-20T09:04:29;101122.19;;;6.65;90.07
36234;BME280;43467;50.890;5.982;2023-02-20T09:06:54;101113.66;;;6.51;89.91
36234;BME280;43467;50.890;5.982;2023-02-20T09:09:19;101117.13;;;6.54;90.02
36234;BME280;43467;50.890;5.982;2023-02-20T09:11:45;101125.75;;;6.64;89.36
36234;BME280;43467;50.890;5.982;2023-02-20T09:14:10;101128.34;;;6.66;89.46
36234;BME280;43467;50.890;5.982;2023-02-20T09:16:35;101123.00;;;6.72;89.38
36234;BME280;43467;50.890;5.982;2023-02-20T09:19:01;101115.19;;;6.66;89.24
36234;BME280;43467;50.890;5.982;2023-02-20T09:21:26;101125.63;;;6.70;88.96
36234;BME280;43467;50.890;5.982;2023-02-20T09:23:54;101117.00;;;6.61;89.07
36234;BME280;43467;50.890;5.982;2023-02-20T09:26:20;101122.19;;;6.65;89.14
36234;BME280;43467;50.890;5.982;2023-02-20T09:28:45;101128.38;;;6.63;88.94
36234;BME280;43467;50.890;5.982;2023-02-20T09:31:10;101132.84;;;6.58;89.39
36234;BME280;43467;50.890;5.982;2023-02-20T09:33:36;101128.19;;;6.75;88.75
36234;BME280;43467;50.890;5.982;2023-02-20T09:36:01;101122.91;;;6.76;88.34
36234;BME280;43467;50.890;5.982;2023-02-20T09:38:27;101122.94;;;6.73;88.54
36234;BME280;43467;50.890;5.982;2023-02-20T09:40:57;101112.50;;;6.69;88.67
36234;BME280;43467;50.890;5.982;2023-02-20T09:43:31;101121.19;;;6.74;88.53
36234;BME280;43467;50.890;5.982;2023-02-20T09:46:18;101130.69;;;6.82;87.99
36234;BME280;43467;50.890;5.982;2023-02-20T09:51:21;101116.66;;;6.82;88.18
36234;BME280;43467;50.890;5.982;2023-02-20T09:54:06;101103.44;;;6.88;87.77
36234;BME280;43467;50.890;5.982;2023-02-20T09:56:36;101102.63;;;6.81;87.92
36234;BME280;43467;50.890;5.982;2023-02-20T09:59:14;101103.50;;;6.82;87.95
36234;BME280;43467;50.890;5.982;2023-02-20T10:01:52;101107.16;;;6.73;88.39
36234;BME280;43467;50.890;5.982;2023-02-20T10:04:37;101099.25;;;6.76;88.24
36234;BME280;43467;50.890;5.982;2023-02-20T10:07:15;101106.06;;;6.86;88.31
36234;BME280;43467;50.890;5.982;2023-02-20T10:09:42;101100.91;;;6.80;88.42
36234;BME280;43467;50.890;5.982;2023-02-20T10:12:31;101101.75;;;6.84;88.42
36234;BME280;43467;50.890;5.982;2023-02-20T10:15:09;101100.19;;;6.72;88.53
36234;BME280;43467;50.890;5.982;2023-02-20T10:26:00;101099.84;;;6.92;88.07
36234;BME280;43467;50.890;5.982;2023-02-20T10:28:28;101103.25;;;6.97;87.77
36234;BME280;43467;50.890;5.982;2023-02-20T10:33:35;101096.13;;;7.04;87.66
36234;BME280;43467;50.890;5.982;2023-02-20T10:36:19;101097.75;;;7.11;87.84
36234;BME280;43467;50.890;5.982;2023-02-20T10:39:10;101100.31;;;7.14;87.82
36234;BME280;43467;50.890;5.982;2023-02-20T10:44:49;101098.63;;;7.10;88.05
36234;BME280;43467;50.890;5.982;2023-02-20T10:47:33;101099.56;;;7.07;88.12
36234;BME280;43467;50.890;5.982;2023-02-20T10:50:20;101108.34;;;7.08;88.40
36234;BME280;43467;50.890;5.982;2023-02-20T10:55:49;101101.91;;;7.22;88.00
36234;BME280;43467;50.890;5.982;2023-02-20T10:58:24;101085.25;;;7.22;88.22
36234;BME280;43467;50.890;5.982;2023-02-20T11:00:53;101092.81;;;7.40;87.56
36234;BME280;43467;50.890;5.982;2023-02-20T11:06:37;101086.91;;;7.27;87.36
36234;BME280;43467;50.890;5.982;2023-02-20T11:09:04;101079.75;;;7.34;87.36
36234;BME280;43467;50.890;5.982;2023-02-20T11:11:33;101069.13;;;7.38;86.98
36234;BME280;43467;50.890;5.982;2023-02-20T11:14:01;101067.28;;;7.42;87.54
36234;BME280;43467;50.890;5.982;2023-02-20T11:16:40;101074.47;;;7.34;87.50
36234;BME280;43467;50.890;5.982;2023-02-20T11:19:30;101079.88;;;7.28;87.85
36234;BME280;43467;50.890;5.982;2023-02-20T11:21:57;101060.81;;;7.15;88.38
36234;BME280;43467;50.890;5.982;2023-02-20T11:26:49;101057.94;;;7.27;88.01
36234;BME280;43467;50.890;5.982;2023-02-20T11:29:18;101031.63;;;7.26;88.03
36234;BME280;43467;50.890;5.982;2023-02-20T11:31:46;101026.47;;;7.21;88.26
36234;BME280;43467;50.890;5.982;2023-02-20T11:34:23;101040.03;;;7.44;88.22
36234;BME280;43467;50.890;5.982;2023-02-20T11:36:52;101041.63;;;7.53;87.86
36234;BME280;43467;50.890;5.982;2023-02-20T11:39:27;101046.81;;;7.56;87.47
36234;BME280;43467;50.890;5.982;2023-02-20T11:42:14;101059.13;;;7.57;87.94
36234;BME280;43467;50.890;5.982;2023-02-20T11:44:41;101061.66;;;7.62;87.72
36234;BME280;43467;50.890;5.982;2023-02-20T11:47:25;101058.06;;;7.66;87.48
36234;BME280;43467;50.890;5.982;2023-02-20T11:50:07;101067.78;;;7.62;88.00
36234;BME280;43467;50.890;5.982;2023-02-20T11:52:33;101072.84;;;7.71;87.67
36234;BME280;43467;50.890;5.982;2023-02-20T11:55:19;101062.06;;;7.83;87.23
36234;BME280;43467;50.890;5.982;2023-02-20T11:57:46;101063.03;;;7.79;87.57
36234;BME280;43467;50.890;5.982;2023-02-20T12:00:17;101052.28;;;7.88;87.46
36234;BME280;43467;50.890;5.982;2023-02-20T12:05:42;101035.78;;;7.80;87.81
36234;BME280;43467;50.890;5.982;2023-02-20T12:11:10;101034.72;;;7.89;88.08
36234;BME280;43467;50.890;5.982;2023-02-20T12:13:39;101038.06;;;7.95;87.84
36234;BME280;43467;50.890;5.982;2023-02-20T12:16:21;101033.66;;;7.96;87.86
36234;BME280;43467;50.890;5.982;2023-02-20T12:21:39;101018.00;;;7.88;88.60
36234;BME280;43467;50.890;5.982;2023-02-20T12:24:26;101025.63;;;8.02;88.32
36234;BME280;43467;50.890;5.982;2023-02-20T12:26:57;101023.09;;;7.98;88.55
36234;BME280;43467;50.890;5.982;2023-02-20T12:35:36;100997.59;;;7.98;88.71
36234;BME280;43467;50.890;5.982;2023-02-20T12:38:25;101010.09;;;7.90;89.06
36234;BME280;43467;50.890;5.982;2023-02-20T12:41:07;100993.31;;;7.92;89.38
36234;BME280;43467;50.890;5.982;2023-02-20T13:00:49;100963.94;;;8.08;90.02
36234;BME280;43467;50.890;5.982;2023-02-20T13:03:56;100961.09;;;8.17;89.73
36234;BME280;43467;50.890;5.982;2023-02-20T13:06:29;100967.06;;;8.23;89.75
36234;BME280;43467;50.890;5.982;2023-02-20T13:09:03;100958.84;;;8.37;89.36
36234;BME280;43467;50.890;5.982;2023-02-20T13:11:35;100951.69;;;8.44;89.02
36234;BME280;43467;50.890;5.982;2023-02-20T13:14:07;100947.22;;;8.46;89.16
36234;BME280;43467;50.890;5.982;2023-02-20T13:17:06;100933.59;;;8.27;89.88
36234;BME280;43467;50.890;5.982;2023-02-20T13:22:30;100939.00;;;8.21;89.58
36234;BME280;43467;50.890;5.982;2023-02-20T13:28:32;100936.34;;;8.22;90.16
36234;BME280;43467;50.890;5.982;2023-02-20T13:31:58;100909.81;;;8.30;90.09
36234;BME280;43467;50.890;5.982;2023-02-20T13:55:01;100866.25;;;8.48;87.86
36234;BME280;43467;50.890;5.982;2023-02-20T13:57:30;100879.34;;;8.51;87.85
36234;BME280;43467;50.890;5.982;2023-02-20T13:59:59;100881.81;;;8.57;87.97
36234;BME280;43467;50.890;5.982;2023-02-20T14:02:24;100893.09;;;8.62;87.84
36234;BME280;43467;50.890;5.982;2023-02-20T14:04:56;100896.44;;;8.68;87.01
36234;BME280;43467;50.890;5.982;2023-02-20T14:07:34;100890.25;;;8.69;86.35
36234;BME280;43467;50.890;5.982;2023-02-20T14:12:39;100875.81;;;8.82;85.93
36234;BME280;43467;50.890;5.982;2023-02-20T14:15:05;100874.19;;;8.77;85.93
36234;BME280;43467;50.890;5.982;2023-02-20T14:17:31;100878.47;;;8.81;85.51
36234;BME280;43467;50.890;5.982;2023-02-20T14:19:59;100867.34;;;9.01;85.38
36234;BME280;43467;50.890;5.982;2023-02-20T14:22:31;100863.41;;;9.15;85.22
36234;BME280;43467;50.890;5.982;2023-02-20T14:25:17;100847.22;;;9.26;83.97
36234;BME280;43467;50.890;5.982;2023-02-20T14:27:43;100832.09;;;9.31;84.37
36234;BME280;43467;50.890;5.982;2023-02-20T14:30:18;100827.06;;;9.51;83.18
36234;BME280;43467;50.890;5.982;2023-02-20T14:32:46;100827.06;;;9.51;82.49
36234;BME280;43467;50.890;5.982;2023-02-20T14:35:29;100830.75;;;9.46;82.47
36234;BME280;43467;50.890;5.982;2023-02-20T14:38:18;100842.03;;;9.51;82.66
36234;BME280;43467;50.890;5.982;2023-02-20T14:40:46;100827.00;;;9.53;81.97
36234;BME280;43467;50.890;5.982;2023-02-20T14:43:23;100813.59;;;9.59;81.51
36234;BME280;43467;50.890;5.982;2023-02-20T14:46:04;100818.34;;;9.48;81.78
36234;BME280;43467;50.890;5.982;2023-02-20T14:48:36;100816.03;;;9.65;81.60
36234;BME280;43467;50.890;5.982;2023-02-20T14:51:12;100822.81;;;9.46;81.77
36234;BME280;43467;50.890;5.982;2023-02-20T14:53:38;100826.91;;;9.56;81.66
36234;BME280;43467;50.890;5.982;2023-02-20T14:56:15;100823.69;;;9.74;81.27
36234;BME280;43467;50.890;5.982;2023-02-20T14:58:44;100822.75;;;9.75;81.25
36234;BME280;43467;50.890;5.982;2023-02-20T15:01:31;100807.63;;;9.78;80.95
36234;BME280;43467;50.890;5.982;2023-02-20T15:04:13;100794.34;;;9.82;80.47
36234;BME280;43467;50.890;5.982;2023-02-20T15:06:42;100802.81;;;9.65;81.05
36234;BME280;43467;50.890;5.982;2023-02-20T15:09:08;100792.13;;;9.68;80.96
36234;BME280;43467;50.890;5.982;2023-02-20T15:11:36;100798.06;;;9.74;80.92
36234;BME280;43467;50.890;5.982;2023-02-20T15:14:13;100798.16;;;9.73;80.66
36234;BME280;43467;50.890;5.982;2023-02-20T15:16:41;100809.09;;;9.87;80.60
36234;BME280;43467;50.890;5.982;2023-02-20T15:19:40;100821.56;;;9.84;80.53
36234;BME280;43467;50.890;5.982;2023-02-20T15:22:04;100810.28;;;9.78;80.95